Pisgah Forest, NC (28768)

07:46 AM EST del 10 Dicembre 2016 (GMT -0500)
Pisgah Center Self Storage | | Change Station

Alt. 2159 ft 35.27 °N, 82.70 °W | Updated 35 seconds ago

Sereno
Sereno
10.1 °F
Sembra 10 °F
N
0.0
Vento Variabile Vento da ESE

Oggi
Massima -- | Minima -- °F
--% Possibilità di precip.
Ieri
Massima -- | Minima -- °F
Precip. -- in
Pressione 30.53 in
Visibilità 10.0 miglia
Nuvole Sereno
Raffreddamento del vento 10 °F
Punto di rugiada 10 °F
Umidità 99%
Piovosità 0.00 in
Spessore del manto nevoso Non disponibile.
7:28 AM 5:18 PM
Gobba a ponente, 83% visible
METAR KAVL 101154Z 35004KT 10SM CLR M07/M11 A3046 RMK AO2 SLP337 T10721106 11050 21078 53008
Pressione 30.53 in
Visibilità 10.0 miglia
Nuvole Sereno
Raffreddamento del vento 10 °F
Punto di rugiada 10 °F
Umidità 99%
Piovosità 0.00 in
Spessore del manto nevoso Non disponibile.
7:28 AM 5:18 PM
Gobba a ponente, 83% visible
METAR KAVL 101154Z 35004KT 10SM CLR M07/M11 A3046 RMK AO2 SLP337 T10721106 11050 21078 53008

10-Day Weather Forecast

Almanac

Astronomia

Dec. 10, 2016 Alba Tramonto
Ora attuale
Crepuscolo civile
Crepuscolo nautico
Crepuscolo astronomico
Luna
Estensione della luce visibile
Lunghezza del giorno
Tomorrow will be .
, % of the Moon is Illuminated

Gli estremi di oggi

State Highs State Lows

Community

WunderPhotos

Upload Photos

1,956,540 foto caricate!

WunderBlog® & News

Nearby

Qualità dell'aria

  Qualità dell'aria Indice AQ Inquinante
Not available.

Profondità neve

Stazione Profondità Altitudine

Attività sismica

Città  Distanza Mag. Data & Ora
Minimo Magnitudo Mostrato è 2.5.

Temperature delle acque costiere

Località Temperatura

Stations

Stazioni meteo nelle vicinanze

Ubicazione della stazione Temp. Raffreddamento del vento Punto di rugiada Umidità Vento Precip. Alt. Aggiornato Tipo
                   

Watches & Warnings

There are currently no watches in effect.